Time,TemperatureF,DewpointF,PressureIn,WindDirection,WindDirectionDegrees,WindSpeedMPH,WindSpeedGustMPH,Humidity,HourlyPrecipIn,Conditions,Clouds,dailyrainin,SoftwareType,DateUTC
2013-08-01 00:22:00,81.0,59.0,30.18,NW,311,14.0,17.0,47,-99.99,,,-99.99,,2013-08-01 06:22:00,
2013-08-01 00:33:00,80.0,59.0,30.19,WNW,300,12.0,14.0,49,-99.99,,,-99.99,,2013-08-01 06:33:00,
2013-08-01 00:42:00,80.0,60.0,30.19,WNW,301,10.0,13.0,50,-99.99,,,-99.99,,2013-08-01 06:42:00,
2013-08-01 01:12:00,79.0,60.0,30.19,WNW,292,8.0,13.0,52,-99.99,,,-99.99,,2013-08-01 07:12:00,
2013-08-01 01:23:00,79.0,60.0,30.19,NW,309,9.0,12.0,53,-99.99,,,-99.99,,2013-08-01 07:23:00,
2013-08-01 01:43:00,79.0,61.0,30.19,NW,315,8.0,9.0,54,-99.99,,,-99.99,,2013-08-01 07:43:00,
2013-08-01 01:53:00,79.0,60.0,30.19,NW,318,10.0,13.0,52,-99.99,,,-99.99,,2013-08-01 07:53:00,
2013-08-01 02:15:00,79.0,59.0,30.19,NW,320,10.0,13.0,52,-99.99,,,-99.99,,2013-08-01 08:15:00,
2013-08-01 02:44:00,78.0,61.0,30.19,North,357,12.0,16.0,57,-99.99,,,-99.99,,2013-08-01 08:44:00,
2013-08-01 02:58:00,77.0,61.0,30.18,North,351,10.0,15.0,58,-99.99,,,-99.99,,2013-08-01 08:58:00,
2013-08-01 03:40:00,75.0,61.0,30.18,NNE,14,7.0,9.0,61,-99.99,,,-99.99,,2013-08-01 09:40:00,
2013-08-01 03:58:00,74.0,62.0,30.17,NE,40,8.0,10.0,65,-99.99,,,-99.99,,2013-08-01 09:58:00,
2013-08-01 04:51:00,73.0,62.0,30.17,NNE,15,3.0,5.0,67,-99.99,,,-99.99,,2013-08-01 10:51:00,
2013-08-01 05:18:00,74.0,61.0,30.17,ENE,65,3.0,5.0,65,-99.99,,,-99.99,,2013-08-01 11:18:00,
2013-08-01 05:48:00,74.0,62.0,30.18,East,99,7.0,9.0,67,-99.99,,,-99.99,,2013-08-01 11:48:00,
2013-08-01 05:59:00,71.0,64.0,30.18,East,84,3.0,5.0,77,-99.99,,,-99.99,,2013-08-01 11:59:00,
2013-08-01 06:11:00,72.0,65.0,30.18,East,98,5.0,7.0,78,-99.99,,,-99.99,,2013-08-01 12:11:00,
2013-08-01 06:30:00,72.0,64.0,30.19,SSE,164,9.0,12.0,77,-99.99,,,-99.99,,2013-08-01 12:30:00,
2013-08-01 06:45:00,75.0,64.0,30.19,SSE,160,8.0,10.0,69,-99.99,,,-99.99,,2013-08-01 12:45:00,
2013-08-01 07:19:00,74.0,62.0,30.21,SSW,205,12.0,17.0,66,-99.99,,,-99.99,,2013-08-01 13:19:00,
2013-08-01 07:29:00,74.0,62.0,30.20,SW,224,9.0,13.0,65,-99.99,,,-99.99,,2013-08-01 13:29:00,
2013-08-01 07:48:00,74.0,62.0,30.22,SW,227,7.0,9.0,65,-99.99,,,-99.99,,2013-08-01 13:48:00,
2013-08-01 09:38:00,75.0,61.0,30.22,North,0,0.0,2.0,62,-99.99,,,-99.99,,2013-08-01 15:38:00,
2013-08-01 09:57:00,75.0,61.0,30.22,North,0,0.0,2.0,62,-99.99,,,-99.99,,2013-08-01 15:57:00,
2013-08-01 10:38:00,80.0,61.0,30.20,ENE,57,5.0,7.0,54,-99.99,,,-99.99,,2013-08-01 16:38:00,
2013-08-01 10:47:00,80.0,61.0,30.20,NE,48,3.0,5.0,53,-99.99,,,-99.99,,2013-08-01 16:47:00,
2013-08-01 10:53:00,81.0,62.0,30.20,NE,39,7.0,8.0,53,-99.99,,,-99.99,,2013-08-01 16:53:00,
2013-08-01 11:10:00,81.0,61.0,30.20,NNE,30,5.0,7.0,50,-99.99,,,-99.99,,2013-08-01 17:10:00,
2013-08-01 11:40:00,84.0,60.0,30.19,East,93,6.0,8.0,44,-99.99,,,-99.99,,2013-08-01 17:40:00,
2013-08-01 11:59:00,86.0,59.0,30.18,NE,42,7.0,9.0,41,-99.99,,,-99.99,,2013-08-01 17:59:00,
2013-08-01 12:17:00,88.0,57.0,30.17,SE,138,5.0,7.0,35,-99.99,,,-99.99,,2013-08-01 18:17:00,
2013-08-01 13:37:00,92.0,55.0,30.14,ESE,117,10.0,13.0,29,-99.99,,,-99.99,,2013-08-01 19:37:00,
2013-08-01 13:58:00,92.0,55.0,30.14,SE,142,13.0,20.0,28,-99.99,,,-99.99,,2013-08-01 19:58:00,
2013-08-01 14:17:00,93.0,54.0,30.13,SSE,153,13.0,16.0,27,-99.99,,,-99.99,,2013-08-01 20:17:00,
2013-08-01 14:47:00,93.0,51.0,30.12,SE,127,14.0,17.0,24,-99.99,,,-99.99,,2013-08-01 20:47:00,
2013-08-01 14:54:00,94.0,49.0,30.11,ESE,117,15.0,20.0,22,-99.99,,,-99.99,,2013-08-01 20:54:00,
2013-08-01 15:43:00,93.0,51.0,30.09,SE,130,10.0,16.0,24,-99.99,,,-99.99,,2013-08-01 21:43:00,
2013-08-01 16:15:00,94.0,48.0,30.07,SSE,148,16.0,18.0,21,-99.99,,,-99.99,,2013-08-01 22:15:00,
2013-08-01 16:46:00,94.0,48.0,30.06,SE,130,10.0,16.0,21,-99.99,,,-99.99,,2013-08-01 22:46:00,
2013-08-01 16:54:00,93.0,48.0,30.06,South,180,12.0,17.0,21,-99.99,,,-99.99,,2013-08-01 22:54:00,
2013-08-01 17:25:00,92.0,47.0,30.05,NNE,23,5.0,7.0,21,-99.99,,,-99.99,,2013-08-01 23:25:00,
2013-08-01 18:07:00,94.0,46.0,30.05,SSE,153,10.0,15.0,20,-99.99,,,-99.99,,2013-08-02 00:07:00,
2013-08-01 18:17:00,93.0,46.0,30.05,SE,124,9.0,12.0,20,-99.99,,,-99.99,,2013-08-02 00:17:00,
2013-08-01 19:03:00,92.0,48.0,30.04,East,86,6.0,7.0,22,-99.99,,,-99.99,,2013-08-02 01:03:00,
2013-08-01 19:16:00,92.0,48.0,30.04,SE,125,7.0,9.0,22,-99.99,,,-99.99,,2013-08-02 01:16:00,
2013-08-01 19:26:00,93.0,48.0,30.05,SE,144,6.0,8.0,22,-99.99,,,-99.99,,2013-08-02 01:26:00,
2013-08-01 19:45:00,92.0,50.0,30.05,ESE,119,6.0,8.0,24,-99.99,,,-99.99,,2013-08-02 01:45:00,
2013-08-01 20:15:00,90.0,50.0,30.06,SSE,148,7.0,9.0,26,-99.99,,,-99.99,,2013-08-02 02:15:00,
2013-08-01 20:34:00,88.0,54.0,30.06,SSE,155,7.0,9.0,31,-99.99,,,-99.99,,2013-08-02 02:34:00,
2013-08-01 20:45:00,88.0,53.0,30.07,South,177,8.0,9.0,31,-99.99,,,-99.99,,2013-08-02 02:45:00,
2013-08-01 21:07:00,87.0,54.0,30.06,South,188,6.0,8.0,33,-99.99,,,-99.99,,2013-08-02 03:07:00,
2013-08-01 21:12:00,87.0,54.0,30.07,SSW,197,7.0,9.0,33,-99.99,,,-99.99,,2013-08-02 03:12:00,
2013-08-01 21:23:00,87.0,54.0,30.07,South,187,7.0,9.0,33,-99.99,,,-99.99,,2013-08-02 03:23:00,
2013-08-01 21:47:00,86.0,54.0,30.07,South,186,6.0,7.0,34,-99.99,,,-99.99,,2013-08-02 03:47:00,
2013-08-01 21:55:00,86.0,54.0,30.08,SSW,202,6.0,7.0,34,-99.99,,,-99.99,,2013-08-02 03:55:00,
2013-08-01 22:22:00,85.0,54.0,30.08,South,189,6.0,8.0,35,-99.99,,,-99.99,,2013-08-02 04:22:00,
2013-08-01 22:33:00,85.0,54.0,30.08,SSW,195,5.0,7.0,35,-99.99,,,-99.99,,2013-08-02 04:33:00,
2013-08-01 22:43:00,85.0,56.0,30.08,SSW,213,6.0,7.0,37,-99.99,,,-99.99,,2013-08-02 04:43:00,
2013-08-01 23:12:00,82.0,57.0,30.07,SW,232,6.0,6.0,42,-99.99,,,-99.99,,2013-08-02 05:12:00,
2013-08-01 23:32:00,83.0,57.0,30.07,WSW,252,5.0,6.0,41,-99.99,,,-99.99,,2013-08-02 05:32:00,
2013-08-01 23:43:00,83.0,56.0,30.07,SW,222,5.0,6.0,41,-99.99,,,-99.99,,2013-08-02 05:43:00,